KFYM/FYM METAR and TAF weather

Enter ICAO airport designator
Station Type Date Time Source
KFYM METAR 2019/02/17 15:40 UTC NOAA

KFYM 171540Z AUTO 18009G16KT 1 3/4SM BR OVC004 12/12 A2980 RMK A01


Station Type Date Time Source
KFYM Decoded METAR 2019/02/17 15:40 UTC NOAA

Station name not available
Feb 17, 2019 - 10:40 AM EST / 2019.02.17 1540 UTC
Wind: from the S (180 degrees) at 10 MPH (9 KT) gusting to 18 MPH (16 KT):0
Visibility: 1 3/4 mile(s):0
Sky conditions: overcast
Weather: mist
Temperature: 53 F (12 C)
Dew Point: 53 F (12 C)
Relative Humidity: 100%
Pressure (altimeter): 29.8 in. Hg (1009 hPa)
ob: KFYM 171540Z AUTO 18009G16KT 1 3/4SM BR OVC004 12/12 A2980 RMK A01
cycle: 15

Station Type Date Time Source
KFYM TAF 2009/08/31 19:45 UTC NOAA

METAR KFYM 311945Z AUTO 01006KT 10SM CLR 26/11 A3009
RMK AO1 T02550111 $


Example: see airport list